createdAt,value
2019-02-20T00:03:49.785Z,89.35
2019-02-20T00:06:25.059Z,89.35
2019-02-20T00:08:56.334Z,88.56
2019-02-20T00:11:27.612Z,88.56
2019-02-20T00:13:57.058Z,88.99
2019-02-20T00:16:25.613Z,88.95
2019-02-20T00:18:57.169Z,88.71
2019-02-20T00:21:28.805Z,88.30
2019-02-20T00:24:00.123Z,88.07
2019-02-20T00:26:31.673Z,88.07
2019-02-20T00:29:03.533Z,88.77
2019-02-20T00:31:35.137Z,88.62
2019-02-20T00:34:08.195Z,88.28
2019-02-20T00:36:39.904Z,88.28
2019-02-20T00:39:11.619Z,87.97
2019-02-20T00:41:43.254Z,88.22
2019-02-20T00:44:16.480Z,87.99
2019-02-20T00:46:58.201Z,87.98
2019-02-20T00:49:31.106Z,87.98
2019-02-20T00:52:01.303Z,88.06
2019-02-20T00:54:33.455Z,88.22
2019-02-20T00:57:05.152Z,88.42
2019-02-20T00:59:36.673Z,88.42
2019-02-20T01:02:08.513Z,88.53
2019-02-20T01:04:40.008Z,88.63
2019-02-20T01:07:11.463Z,88.50
2019-02-20T01:09:42.735Z,88.34
2019-02-20T01:12:14.121Z,88.34
2019-02-20T01:14:42.703Z,88.61
2019-02-20T01:17:15.386Z,87.87
2019-02-20T01:19:46.605Z,87.87
2019-02-20T01:22:17.851Z,88.23
2019-02-20T01:24:49.441Z,88.50
2019-02-20T01:27:21.475Z,88.34
2019-02-20T01:29:53.087Z,88.12
2019-02-20T01:32:24.666Z,88.12
2019-02-20T01:34:53.595Z,88.37
2019-02-20T01:37:22.564Z,88.22
2019-02-20T01:39:51.543Z,88.22
2019-02-20T01:42:20.115Z,87.59
2019-02-20T01:44:48.670Z,87.41
2019-02-20T01:47:19.974Z,87.37
2019-02-20T01:49:48.527Z,87.61
2019-02-20T01:52:20.112Z,87.27
2019-02-20T01:54:48.677Z,86.75
2019-02-20T01:57:20.141Z,86.75
2019-02-20T01:59:53.547Z,86.65
2019-02-20T02:02:25.052Z,86.77
2019-02-20T02:04:56.184Z,86.77
2019-02-20T02:07:27.629Z,86.62
2019-02-20T02:09:56.182Z,86.79
2019-02-20T02:12:24.772Z,86.79
2019-02-20T02:14:55.010Z,86.80
2019-02-20T02:17:26.577Z,86.89
2019-02-20T02:19:55.139Z,86.74
2019-02-20T02:22:26.424Z,87.02
2019-02-20T02:24:54.981Z,87.23
2019-02-20T02:27:26.548Z,87.03
2019-02-20T02:29:55.087Z,87.08
2019-02-20T02:32:26.328Z,86.97
2019-02-20T02:34:56.393Z,87.16
2019-02-20T02:37:27.682Z,87.22
2019-02-20T02:39:59.181Z,87.23
2019-02-20T02:42:30.430Z,86.17
2019-02-20T02:44:59.369Z,86.17
2019-02-20T02:47:30.632Z,85.93
2019-02-20T02:49:59.180Z,85.93
2019-02-20T02:52:28.088Z,85.76
2019-02-20T02:54:56.639Z,86.10
2019-02-20T02:57:28.079Z,86.22
2019-02-20T02:59:56.633Z,86.54
2019-02-20T03:02:28.210Z,86.54
2019-02-20T03:04:56.742Z,86.66
2019-02-20T03:07:29.812Z,86.66
2019-02-20T03:10:01.137Z,86.19
2019-02-20T03:12:32.433Z,85.87
2019-02-20T03:15:00.996Z,86.16
2019-02-20T03:17:32.447Z,86.44
2019-02-20T03:20:00.993Z,85.82
2019-02-20T03:22:32.695Z,85.82
2019-02-20T03:25:01.268Z,86.30
2019-02-20T03:27:32.529Z,86.29
2019-02-20T03:30:01.091Z,86.21
2019-02-20T03:32:32.360Z,86.21
2019-02-20T03:35:00.909Z,86.82
2019-02-20T03:37:29.501Z,86.73
2019-02-20T03:40:01.164Z,86.92
2019-02-20T03:42:29.766Z,86.86
2019-02-20T03:44:58.323Z,86.98
2019-02-20T03:47:31.800Z,86.98
2019-02-20T03:50:00.427Z,86.92
2019-02-20T03:52:31.705Z,87.11
2019-02-20T03:55:03.278Z,88.10
2019-02-20T03:57:34.524Z,88.10
2019-02-20T04:00:03.520Z,88.48
2019-02-20T04:02:35.175Z,88.31
2019-02-20T04:05:07.388Z,88.31
2019-02-20T04:07:38.930Z,88.15
2019-02-20T04:10:10.530Z,87.81
2019-02-20T04:12:41.776Z,87.81
2019-02-20T04:15:10.773Z,88.28
2019-02-20T04:17:39.510Z,87.82
2019-02-20T04:20:10.799Z,87.82
2019-02-20T04:22:42.074Z,87.83
2019-02-20T04:25:10.631Z,88.24
2019-02-20T04:27:39.206Z,88.61
2019-02-20T04:30:11.129Z,88.65
2019-02-20T04:32:42.389Z,88.65
2019-02-20T04:35:10.931Z,89.53
2019-02-20T04:37:42.294Z,88.98
2019-02-20T04:40:13.838Z,89.02
2019-02-20T04:42:45.331Z,88.94
2019-02-20T04:45:17.102Z,88.94
2019-02-20T04:47:48.749Z,88.70
2019-02-20T04:50:19.962Z,88.70
2019-02-20T04:52:53.153Z,88.49
2019-02-20T04:55:24.401Z,88.22
2019-02-20T04:58:32.049Z,88.07
2019-02-20T05:01:03.527Z,88.07
2019-02-20T05:03:34.701Z,87.58
2019-02-20T05:06:03.262Z,87.46
2019-02-20T05:08:31.833Z,87.46
2019-02-20T05:11:02.953Z,87.15
2019-02-20T05:13:34.247Z,87.10
2019-02-20T05:16:03.593Z,87.10
2019-02-20T05:18:34.850Z,87.40
2019-02-20T05:21:06.144Z,87.61
2019-02-20T05:23:37.637Z,87.61
2019-02-20T05:26:06.195Z,87.64
2019-02-20T05:28:37.724Z,87.12
2019-02-20T05:31:09.048Z,87.12
2019-02-20T05:33:40.306Z,88.03
2019-02-20T05:36:11.855Z,88.03
2019-02-20T05:38:43.510Z,87.54
2019-02-20T05:41:12.085Z,87.67
2019-02-20T05:43:43.645Z,87.67
2019-02-20T05:46:15.253Z,87.84
2019-02-20T05:48:46.528Z,87.71
2019-02-20T05:51:15.092Z,87.46
2019-02-20T05:53:46.872Z,87.46
2019-02-20T05:56:15.441Z,87.47
2019-02-20T05:58:46.979Z,87.13
2019-02-20T06:01:15.538Z,87.07
2019-02-20T06:03:46.800Z,86.86
2019-02-20T06:06:18.374Z,86.86
2019-02-20T06:08:49.659Z,87.34
2019-02-20T06:11:18.217Z,87.05
2019-02-20T06:13:46.806Z,87.30
2019-02-20T06:16:15.825Z,87.08
2019-02-20T06:18:47.512Z,86.72
2019-02-20T06:21:16.488Z,86.42
2019-02-20T06:23:47.643Z,86.95
2019-02-20T06:26:19.760Z,86.95
2019-02-20T06:28:51.419Z,86.09
2019-02-20T06:31:19.937Z,85.15
2019-02-20T06:33:53.427Z,85.15
2019-02-20T06:36:25.337Z,85.60
2019-02-20T06:38:56.970Z,85.71
2019-02-20T06:41:28.339Z,84.92
2019-02-20T06:43:56.895Z,84.71
2019-02-20T06:46:28.244Z,84.52
2019-02-20T06:48:59.921Z,84.45
2019-02-20T06:51:28.510Z,84.40
2019-02-20T06:53:57.089Z,83.64
2019-02-20T06:56:25.676Z,83.63
2019-02-20T06:58:57.019Z,83.71
2019-02-20T07:01:25.593Z,83.24
2019-02-20T07:03:56.098Z,82.24
2019-02-20T07:06:30.947Z,81.58
2019-02-20T07:09:24.935Z,81.41
2019-02-20T07:12:08.832Z,81.08
2019-02-20T07:14:56.977Z,80.19
2019-02-20T07:17:46.686Z,80.73
2019-02-20T07:20:37.808Z,79.02
2019-02-20T07:23:30.415Z,78.73
2019-02-20T07:28:57.566Z,79.45
2019-02-20T07:31:29.130Z,78.93
2019-02-20T07:34:00.546Z,79.03
2019-02-20T07:36:29.123Z,80.08
2019-02-20T07:38:57.695Z,78.22
2019-02-20T07:41:29.308Z,79.02
2019-02-20T07:44:00.610Z,78.36
2019-02-20T07:46:32.329Z,78.30
2019-02-20T07:49:03.556Z,78.45
2019-02-20T07:51:35.060Z,77.89
2019-02-20T07:54:04.033Z,78.40
2019-02-20T07:56:35.320Z,76.97
2019-02-20T07:59:06.545Z,76.82
2019-02-20T08:01:38.285Z,77.00
2019-02-20T08:04:06.831Z,78.42
2019-02-20T08:06:35.415Z,77.81
2019-02-20T08:09:06.780Z,77.81
2019-02-20T08:11:38.100Z,78.72
2019-02-20T08:14:06.660Z,77.63
2019-02-20T08:16:38.190Z,78.12
2019-02-20T08:19:09.443Z,78.10
2019-02-20T08:21:41.268Z,77.51
2019-02-20T08:24:09.838Z,76.63
2019-02-20T08:26:41.354Z,76.91
2019-02-20T08:29:13.051Z,76.46
2019-02-20T08:31:41.608Z,75.88
2019-02-20T08:34:10.188Z,76.11
2019-02-20T08:36:38.749Z,75.43
2019-02-20T08:39:10.374Z,76.70
2019-02-20T08:41:41.734Z,76.48
2019-02-20T08:44:12.983Z,76.73
2019-02-20T08:46:44.520Z,76.63
2019-02-20T08:49:13.100Z,77.00
2019-02-20T08:51:41.666Z,77.09
2019-02-20T08:54:10.308Z,76.49
2019-02-20T08:56:38.873Z,76.10
2019-02-20T08:59:10.286Z,74.91
2019-02-20T09:01:41.861Z,75.21
2019-02-20T09:04:10.436Z,75.12
2019-02-20T09:06:38.990Z,74.47
2019-02-20T09:09:10.814Z,75.60
2019-02-20T09:11:39.352Z,74.81
2019-02-20T09:14:10.652Z,74.05
2019-02-20T09:16:39.658Z,73.25
2019-02-20T09:19:11.410Z,74.38
2019-02-20T09:21:42.898Z,73.37
2019-02-20T09:24:11.830Z,73.80
2019-02-20T09:26:40.376Z,74.08
2019-02-20T09:29:08.965Z,74.41
2019-02-20T09:31:40.218Z,73.67
2019-02-20T09:34:11.504Z,74.16
2019-02-20T09:36:42.750Z,74.38
2019-02-20T09:39:34.584Z,73.67
2019-02-20T09:42:03.688Z,74.07
2019-02-20T09:44:35.040Z,73.77
2019-02-20T09:47:03.757Z,73.42
2019-02-20T09:49:35.011Z,73.20
2019-02-20T09:52:03.963Z,72.82
2019-02-20T09:54:35.571Z,72.25
2019-02-20T09:57:35.701Z,72.12
2019-02-20T10:00:00.646Z,72.89
2019-02-20T10:02:29.205Z,71.41
2019-02-20T10:05:00.711Z,72.24
2019-02-20T10:07:29.654Z,71.97
2019-02-20T10:10:01.113Z,71.38
2019-02-20T10:12:32.594Z,71.77
2019-02-20T10:15:01.169Z,72.34
2019-02-20T10:17:32.844Z,71.34
2019-02-20T10:20:04.169Z,72.03
2019-02-20T10:22:32.722Z,70.67
2019-02-20T10:25:05.885Z,71.81
2019-02-20T10:27:37.187Z,70.96
2019-02-20T10:30:08.817Z,71.36
2019-02-20T10:32:37.372Z,70.44
2019-02-20T10:35:09.920Z,70.94
2019-02-20T10:37:38.480Z,70.29
2019-02-20T10:40:11.037Z,70.14
2019-02-20T10:42:39.615Z,70.57
2019-02-20T10:45:12.430Z,70.27
2019-02-20T10:47:44.009Z,69.48
2019-02-20T10:50:15.477Z,69.06
2019-02-20T10:52:46.815Z,69.63
2019-02-20T10:55:15.437Z,70.39
2019-02-20T10:57:46.950Z,70.10
2019-02-20T11:00:24.584Z,69.17
2019-02-20T11:02:54.814Z,69.00
2019-02-20T11:05:26.296Z,70.14
2019-02-20T11:07:54.914Z,69.78
2019-02-20T11:13:39.008Z,69.54
2019-02-20T11:16:07.647Z,69.46
2019-02-20T11:18:39.015Z,69.14
2019-02-20T11:21:10.338Z,70.87
2019-02-20T11:23:38.951Z,70.14
2019-02-20T11:26:17.909Z,70.62
2019-02-20T11:28:43.474Z,70.54
2019-02-20T11:31:15.019Z,70.43
2019-02-20T11:33:46.575Z,71.65
2019-02-20T11:36:18.253Z,71.66
2019-02-20T11:38:46.831Z,71.84
2019-02-20T11:41:18.082Z,71.00
2019-02-20T11:43:46.661Z,71.25
2019-02-20T11:46:18.511Z,70.74
2019-02-20T11:48:47.090Z,70.45
2019-02-20T11:51:18.619Z,70.45
2019-02-20T11:53:47.273Z,70.61
2019-02-20T11:56:26.429Z,69.33
2019-02-20T11:58:53.236Z,68.76
2019-02-20T12:01:24.497Z,71.33
2019-02-20T12:03:53.087Z,68.71
2019-02-20T12:06:30.922Z,69.35
2019-02-20T12:08:59.614Z,68.76
2019-02-20T12:11:33.336Z,68.74
2019-02-20T12:14:01.985Z,68.63
2019-02-20T12:16:33.658Z,67.86
2019-02-20T12:19:05.150Z,67.64
2019-02-20T12:21:36.667Z,68.54
2019-02-20T12:24:05.341Z,68.17
2019-02-20T12:26:53.534Z,68.41
2019-02-20T12:29:22.682Z,68.45
2019-02-20T12:31:55.587Z,68.87
2019-02-20T12:34:28.216Z,68.69
2019-02-20T12:36:56.902Z,68.44
2019-02-20T12:39:25.488Z,66.84
2019-02-20T12:41:57.233Z,66.97
2019-02-20T12:44:28.809Z,65.64
2019-02-20T12:47:00.255Z,66.01
2019-02-20T12:49:28.838Z,64.69
2019-02-20T12:51:57.400Z,65.36
2019-02-20T12:54:26.550Z,67.14
2019-02-20T12:56:57.889Z,66.06
2019-02-20T12:59:29.188Z,66.50
2019-02-20T13:02:00.736Z,66.58
2019-02-20T13:04:32.049Z,66.29
2019-02-20T13:07:00.636Z,65.06
2019-02-20T13:09:31.898Z,64.96
2019-02-20T13:12:00.488Z,64.34
2019-02-20T13:14:32.192Z,63.59
2019-02-20T13:17:03.871Z,63.79
2019-02-20T13:19:35.653Z,64.79
2019-02-20T13:22:07.274Z,65.37
2019-02-20T13:24:35.831Z,63.02
2019-02-20T13:27:10.260Z,63.80
2019-02-20T13:29:38.887Z,64.18
2019-02-20T13:32:10.405Z,64.38
2019-02-20T13:34:38.968Z,65.54
2019-02-20T13:37:10.355Z,65.04
2019-02-20T13:39:41.943Z,65.65
2019-02-20T13:42:13.418Z,66.49
2019-02-20T13:44:45.294Z,66.01
2019-02-20T13:47:16.591Z,64.65
2019-02-20T13:49:45.224Z,64.79
2019-02-20T13:52:14.270Z,65.21
2019-02-20T13:54:45.829Z,64.64
2019-02-20T13:57:17.097Z,64.85
2019-02-20T13:59:48.604Z,65.26
2019-02-20T14:02:20.466Z,65.39
2019-02-20T14:04:55.527Z,64.60
2019-02-20T14:07:27.029Z,64.33
2019-02-20T14:09:55.624Z,64.56
2019-02-20T14:12:26.943Z,64.77
2019-02-20T14:14:56.902Z,63.95
2019-02-20T14:17:28.333Z,63.80
2019-02-20T14:19:59.655Z,63.05
2019-02-20T14:22:31.187Z,63.60
2019-02-20T14:25:00.022Z,63.44
2019-02-20T14:27:31.750Z,62.99
2019-02-20T14:30:03.028Z,63.43
2019-02-20T14:32:34.584Z,64.09
2019-02-20T14:35:09.002Z,62.90
2019-02-20T14:37:39.336Z,62.52
2019-02-20T14:40:09.430Z,63.13
2019-02-20T14:42:40.738Z,62.68
2019-02-20T14:45:15.470Z,62.09
2019-02-20T14:47:46.991Z,62.13
2019-02-20T14:50:15.548Z,61.57
2019-02-20T14:52:44.135Z,62.49
2019-02-20T14:55:15.617Z,61.13
2019-02-20T14:57:47.044Z,61.90
2019-02-20T15:00:16.453Z,61.32
2019-02-20T15:02:48.281Z,61.76
2019-02-20T15:05:20.219Z,62.10
2019-02-20T15:07:54.013Z,62.63
2019-02-20T15:10:22.646Z,64.29
2019-02-20T15:12:52.599Z,64.75
2019-02-20T15:15:23.996Z,63.99
2019-02-20T15:17:55.776Z,64.12
2019-02-20T15:20:30.314Z,63.89
2019-02-20T15:23:01.680Z,63.99
2019-02-20T15:25:32.894Z,65.70
2019-02-20T15:28:04.733Z,64.57
2019-02-20T15:30:33.416Z,64.25
2019-02-20T15:33:05.393Z,64.50
2019-02-20T15:35:36.917Z,63.84
2019-02-20T15:38:08.522Z,63.01
2019-02-20T15:40:40.063Z,63.23
2019-02-20T15:43:11.322Z,63.75
2019-02-20T15:45:40.137Z,63.84
2019-02-20T15:48:11.521Z,64.38
2019-02-20T15:50:42.778Z,65.40
2019-02-20T15:53:11.363Z,65.06
2019-02-20T15:55:42.894Z,64.43
2019-02-20T15:58:14.363Z,64.75
2019-02-20T16:00:46.827Z,65.41
2019-02-20T16:03:18.188Z,64.94
2019-02-20T16:05:49.439Z,64.74
2019-02-20T16:08:21.011Z,64.97
2019-02-20T16:10:49.621Z,64.86
2019-02-20T16:13:22.160Z,64.98
2019-02-20T16:15:55.419Z,66.25
2019-02-20T16:18:26.845Z,65.48
2019-02-20T16:20:55.409Z,65.93
2019-02-20T16:23:26.857Z,65.76
2019-02-20T16:25:55.443Z,65.88
2019-02-20T16:28:33.556Z,65.91
2019-02-20T16:31:00.333Z,66.40
2019-02-20T16:33:31.539Z,68.08
2019-02-20T16:36:03.061Z,66.70
2019-02-20T16:38:31.612Z,66.79
2019-02-20T16:41:04.716Z,67.06
2019-02-20T16:43:36.320Z,67.43
2019-02-20T16:46:04.892Z,67.56
2019-02-20T16:48:36.131Z,67.73
2019-02-20T16:51:04.739Z,67.56
2019-02-20T16:53:34.280Z,67.69
2019-02-20T16:56:02.854Z,67.67
2019-02-20T16:58:34.544Z,67.79
2019-02-20T17:01:07.103Z,67.77
2019-02-20T17:03:38.643Z,68.00
2019-02-20T17:06:10.207Z,69.51
2019-02-20T17:08:39.831Z,69.54
2019-02-20T17:11:11.580Z,69.13
2019-02-20T17:13:40.155Z,68.85
2019-02-20T17:16:11.475Z,69.41
2019-02-20T17:18:40.040Z,70.22
2019-02-20T17:21:11.575Z,69.59
2019-02-20T17:23:40.199Z,70.55
2019-02-20T17:26:08.853Z,69.65
2019-02-20T17:28:40.114Z,69.23
2019-02-20T17:31:08.757Z,69.62
2019-02-20T17:33:40.431Z,69.76
2019-02-20T17:36:12.320Z,69.98
2019-02-20T17:38:41.098Z,70.25
2019-02-20T17:41:10.322Z,71.17
2019-02-20T17:43:42.168Z,70.77
2019-02-20T17:46:14.031Z,70.76
2019-02-20T17:48:42.588Z,71.05
2019-02-20T17:51:11.459Z,71.33
2019-02-20T17:53:41.424Z,71.09
2019-02-20T17:56:12.721Z,71.54
2019-02-20T17:58:44.024Z,71.19
2019-02-20T18:01:16.543Z,71.42
2019-02-20T18:03:45.109Z,71.73
2019-02-20T18:06:13.867Z,72.14
2019-02-20T18:08:45.071Z,72.21
2019-02-20T18:11:16.765Z,72.10
2019-02-20T18:13:45.692Z,72.29
2019-02-20T18:16:14.305Z,72.20
2019-02-20T18:18:42.893Z,72.82
2019-02-20T18:21:15.221Z,71.91
2019-02-20T18:23:47.165Z,72.34
2019-02-20T18:26:18.742Z,72.06
2019-02-20T18:28:50.239Z,72.46
2019-02-20T18:31:24.052Z,72.84
2019-02-20T18:33:56.072Z,72.62
2019-02-20T18:36:24.812Z,72.46
2019-02-20T18:38:55.324Z,72.01
2019-02-20T18:41:23.920Z,72.09
2019-02-20T18:43:55.487Z,72.75
2019-02-20T18:46:26.839Z,72.67
2019-02-20T18:48:58.260Z,72.64
2019-02-20T18:51:29.593Z,72.77
2019-02-20T18:53:58.158Z,72.85
2019-02-20T18:56:26.756Z,73.13
2019-02-20T18:58:58.101Z,72.59
2019-02-20T19:01:30.100Z,72.58
2019-02-20T19:04:01.717Z,72.77
2019-02-20T19:06:30.400Z,72.90
2019-02-20T19:09:02.491Z,73.00
2019-02-20T19:11:51.227Z,73.10
2019-02-20T19:14:31.698Z,73.43
2019-02-20T19:17:27.210Z,73.17
2019-02-20T19:20:20.144Z,73.36
2019-02-20T19:23:17.348Z,73.47
2019-02-20T19:26:07.209Z,73.60
2019-02-20T19:28:56.873Z,74.35
2019-02-20T19:31:40.229Z,74.08
2019-02-20T19:34:17.615Z,74.39
2019-02-20T19:37:22.669Z,74.45
2019-02-20T19:40:03.445Z,74.58
2019-02-20T19:42:59.174Z,73.86
2019-02-20T19:45:42.640Z,74.94
2019-02-20T19:48:33.520Z,74.19
2019-02-20T19:51:26.623Z,73.70
2019-02-20T19:54:13.472Z,73.83
2019-02-20T19:57:11.043Z,73.36
2019-02-20T20:00:01.334Z,73.90
2019-02-20T20:03:02.703Z,73.74
2019-02-20T20:05:52.984Z,74.08
2019-02-20T20:08:26.227Z,74.53
2019-02-20T20:11:17.471Z,74.78
2019-02-20T20:14:10.185Z,74.09
2019-02-20T20:16:53.663Z,74.83
2019-02-20T20:19:45.675Z,74.39
2019-02-20T20:22:43.312Z,74.73
2019-02-20T20:25:24.649Z,74.68
2019-02-20T20:28:01.992Z,74.47
2019-02-20T20:30:56.346Z,74.87
2019-02-20T20:33:37.046Z,75.07
2019-02-20T20:36:25.980Z,74.92
2019-02-20T20:39:10.101Z,75.55
2019-02-20T20:42:13.708Z,75.68
2019-02-20T20:45:14.329Z,75.38
2019-02-20T20:48:19.384Z,74.90
2019-02-20T20:51:10.107Z,74.99
2019-02-20T20:53:56.539Z,75.12
2019-02-20T20:56:36.865Z,75.09
2019-02-20T20:59:17.966Z,74.51
2019-02-20T21:02:11.570Z,75.18
2019-02-20T21:04:54.201Z,75.34
2019-02-20T21:07:41.099Z,74.71
2019-02-20T21:10:24.527Z,75.56
2019-02-20T21:13:14.206Z,75.94
2019-02-20T21:16:00.959Z,75.31
2019-02-20T21:19:05.919Z,75.11
2019-02-20T21:21:58.730Z,75.50
2019-02-20T21:24:42.037Z,75.05
2019-02-20T21:27:22.716Z,76.04
2019-02-20T21:30:13.436Z,75.18
2019-02-20T21:32:50.263Z,75.45
2019-02-20T21:35:27.492Z,75.57
2019-02-20T21:38:30.933Z,75.85
2019-02-20T21:41:08.136Z,76.09
2019-02-20T21:43:48.763Z,76.05
2019-02-20T21:46:53.751Z,75.76
2019-02-20T21:49:37.814Z,76.40
2019-02-20T21:52:33.085Z,75.58
2019-02-20T21:55:29.112Z,75.10
2019-02-20T21:58:27.320Z,75.83
2019-02-20T22:01:04.960Z,75.55
2019-02-20T22:03:56.527Z,75.21
2019-02-20T22:06:53.029Z,76.64
2019-02-20T22:09:30.157Z,76.63
2019-02-20T22:12:36.700Z,76.21
2019-02-20T22:15:17.271Z,76.20
2019-02-20T22:17:54.542Z,76.10
2019-02-20T22:20:31.987Z,75.99
2019-02-20T22:23:33.873Z,76.53
2019-02-20T22:26:11.164Z,76.05
2019-02-20T22:28:57.637Z,76.43
2019-02-20T22:31:38.151Z,76.57
2019-02-20T22:34:29.541Z,76.65
2019-02-20T22:37:04.204Z,77.08
2019-02-20T22:39:53.945Z,77.24
2019-02-20T22:42:28.708Z,77.30
2019-02-20T22:45:12.475Z,77.62
2019-02-20T22:48:06.478Z,77.62
2019-02-20T22:50:56.464Z,78.66
2019-02-20T22:53:48.224Z,78.66
2019-02-20T22:56:53.301Z,78.13
2019-02-20T23:00:02.791Z,78.37
2019-02-20T23:02:50.631Z,78.62
2019-02-20T23:05:28.601Z,78.60
2019-02-20T23:08:02.940Z,78.78
2019-02-20T23:10:39.732Z,78.79
2019-02-20T23:13:41.238Z,78.30
2019-02-20T23:16:12.594Z,79.04
2019-02-20T23:18:44.274Z,79.07
2019-02-20T23:21:15.861Z,79.33
2019-02-20T23:23:47.165Z,79.33
2019-02-20T23:26:18.409Z,79.40
2019-02-20T23:28:49.890Z,78.55
2019-02-20T23:31:21.431Z,78.55
2019-02-20T23:33:53.188Z,79.07
2019-02-20T23:36:24.544Z,79.27
2019-02-20T23:38:56.249Z,79.27
2019-02-20T23:41:27.769Z,79.68
2019-02-20T23:43:59.397Z,79.68
2019-02-20T23:46:31.060Z,79.37
2019-02-20T23:49:02.560Z,79.89
2019-02-20T23:51:34.063Z,80.45
2019-02-20T23:54:03.261Z,80.99
2019-02-20T23:56:34.667Z,80.50
2019-02-20T23:59:06.276Z,80.50
